sensor_id;sensor_type;location;lat;lon;timestamp;P1;P2;P0
27143;PMS1003;14672;50.250;8.312;2023-05-10T00:01:39;4.00;4.00;0.00
27143;PMS1003;14672;50.250;8.312;2023-05-10T00:04:05;4.00;4.00;0.00
27143;PMS1003;14672;50.250;8.312;2023-05-10T00:06:34;4.00;2.00;0.00
27143;PMS1003;14672;50.250;8.312;2023-05-10T00:09:00;4.00;4.00;0.00
27143;PMS1003;14672;50.250;8.312;2023-05-10T00:11:25;2.00;2.00;0.00
27143;PMS1003;14672;50.250;8.312;2023-05-10T00:13:51;2.33;2.33;0.00
27143;PMS1003;14672;50.250;8.312;2023-05-10T00:16:20;2.00;2.00;0.00
27143;PMS1003;14672;50.250;8.312;2023-05-10T00:18:46;2.00;2.00;0.00
27143;PMS1003;14672;50.250;8.312;2023-05-10T00:21:11;4.00;4.00;0.00
27143;PMS1003;14672;50.250;8.312;2023-05-10T00:23:37;4.00;4.00;1.00
27143;PMS1003;14672;50.250;8.312;2023-05-10T00:26:03;2.00;2.00;0.00
27143;PMS1003;14672;50.250;8.312;2023-05-10T00:28:29;4.00;4.00;1.00
27143;PMS1003;14672;50.250;8.312;2023-05-10T00:30:54;2.00;2.00;0.00
27143;PMS1003;14672;50.250;8.312;2023-05-10T00:33:20;4.00;4.00;0.00
27143;PMS1003;14672;50.250;8.312;2023-05-10T00:35:46;4.00;2.67;0.00
27143;PMS1003;14672;50.250;8.312;2023-05-10T00:38:12;2.00;2.00;0.00
27143;PMS1003;14672;50.250;8.312;2023-05-10T00:40:38;2.00;2.00;0.00
27143;PMS1003;14672;50.250;8.312;2023-05-10T00:43:04;4.00;4.00;0.00
27143;PMS1003;14672;50.250;8.312;2023-05-10T00:45:36;4.00;2.25;0.00
27143;PMS1003;14672;50.250;8.312;2023-05-10T00:48:04;2.00;2.00;0.00
27143;PMS1003;14672;50.250;8.312;2023-05-10T00:50:34;4.00;4.00;0.25
27143;PMS1003;14672;50.250;8.312;2023-05-10T00:53:00;4.25;4.25;0.75
27143;PMS1003;14672;50.250;8.312;2023-05-10T00:55:27;3.25;3.00;0.00
27143;PMS1003;14672;50.250;8.312;2023-05-10T00:57:53;2.25;2.25;0.00
27143;PMS1003;14672;50.250;8.312;2023-05-10T01:00:19;2.00;2.00;0.00
27143;PMS1003;14672;50.250;8.312;2023-05-10T01:02:45;4.00;4.00;0.50
27143;PMS1003;14672;50.250;8.312;2023-05-10T01:05:12;3.00;3.00;0.00
27143;PMS1003;14672;50.250;8.312;2023-05-10T01:07:39;4.00;4.00;0.25
27143;PMS1003;14672;50.250;8.312;2023-05-10T01:14:04;3.00;3.00;0.00
27143;PMS1003;14672;50.250;8.312;2023-05-10T01:16:32;2.75;2.75;0.00
27143;PMS1003;14672;50.250;8.312;2023-05-10T01:19:16;2.75;2.75;0.00
27143;PMS1003;14672;50.250;8.312;2023-05-10T01:36:06;2.75;2.75;0.00
27143;PMS1003;14672;50.250;8.312;2023-05-10T01:38:42;3.00;3.00;0.00
27143;PMS1003;14672;50.250;8.312;2023-05-10T01:41:54;3.75;3.75;0.00
27143;PMS1003;14672;50.250;8.312;2023-05-10T01:47:09;2.75;2.75;0.00
27143;PMS1003;14672;50.250;8.312;2023-05-10T01:50:00;4.00;4.00;0.75
27143;PMS1003;14672;50.250;8.312;2023-05-10T01:52:33;4.00;4.00;0.75
27143;PMS1003;14672;50.250;8.312;2023-05-10T01:55:06;4.00;4.00;0.75
27143;PMS1003;14672;50.250;8.312;2023-05-10T01:57:38;5.50;4.00;0.00
27143;PMS1003;14672;50.250;8.312;2023-05-10T02:00:07;4.00;4.00;0.75
27143;PMS1003;14672;50.250;8.312;2023-05-10T02:02:39;5.75;4.25;0.25
27143;PMS1003;14672;50.250;8.312;2023-05-10T02:05:09;4.00;4.00;0.00
27143;PMS1003;14672;50.250;8.312;2023-05-10T02:07:39;3.75;3.75;0.00
27143;PMS1003;14672;50.250;8.312;2023-05-10T02:10:07;4.00;4.00;0.00
27143;PMS1003;14672;50.250;8.312;2023-05-10T02:12:36;4.00;4.00;0.00
27143;PMS1003;14672;50.250;8.312;2023-05-10T02:15:08;4.00;4.00;0.00
27143;PMS1003;14672;50.250;8.312;2023-05-10T02:17:37;2.75;2.75;0.00
27143;PMS1003;14672;50.250;8.312;2023-05-10T02:20:04;3.25;3.25;0.00
27143;PMS1003;14672;50.250;8.312;2023-05-10T02:22:32;4.00;4.00;0.00
27143;PMS1003;14672;50.250;8.312;2023-05-10T02:25:01;4.00;4.00;0.00
27143;PMS1003;14672;50.250;8.312;2023-05-10T02:27:29;4.00;4.00;0.00
27143;PMS1003;14672;50.250;8.312;2023-05-10T02:29:56;4.00;4.00;0.00
27143;PMS1003;14672;50.250;8.312;2023-05-10T02:32:24;5.50;5.50;1.00
27143;PMS1003;14672;50.250;8.312;2023-05-10T02:34:52;3.00;3.00;0.00
27143;PMS1003;14672;50.250;8.312;2023-05-10T02:37:20;3.50;3.25;0.00
27143;PMS1003;14672;50.250;8.312;2023-05-10T02:39:47;4.00;4.00;0.75
27143;PMS1003;14672;50.250;8.312;2023-05-10T02:42:18;4.00;4.00;1.00
27143;PMS1003;14672;50.250;8.312;2023-05-10T02:44:50;4.00;4.00;0.75
27143;PMS1003;14672;50.250;8.312;2023-05-10T02:47:21;4.00;4.00;0.75
27143;PMS1003;14672;50.250;8.312;2023-05-10T02:49:47;4.00;4.00;0.33
27143;PMS1003;14672;50.250;8.312;2023-05-10T02:52:14;3.25;3.25;0.00
27143;PMS1003;14672;50.250;8.312;2023-05-10T02:54:50;2.75;2.75;0.00
27143;PMS1003;14672;50.250;8.312;2023-05-10T02:57:27;3.00;3.00;0.00
27143;PMS1003;14672;50.250;8.312;2023-05-10T02:59:59;4.00;4.00;1.00
27143;PMS1003;14672;50.250;8.312;2023-05-10T03:02:26;4.75;4.75;0.75
27143;PMS1003;14672;50.250;8.312;2023-05-10T03:04:52;4.00;4.00;0.00
27143;PMS1003;14672;50.250;8.312;2023-05-10T03:07:18;4.00;4.00;0.00
27143;PMS1003;14672;50.250;8.312;2023-05-10T03:09:46;5.50;5.50;1.00
27143;PMS1003;14672;50.250;8.312;2023-05-10T03:12:20;7.00;6.00;1.00
27143;PMS1003;14672;50.250;8.312;2023-05-10T03:20:24;4.50;4.50;1.00
27143;PMS1003;14672;50.250;8.312;2023-05-10T03:23:00;6.00;6.00;1.00
27143;PMS1003;14672;50.250;8.312;2023-05-10T03:25:36;4.00;4.00;0.75
27143;PMS1003;14672;50.250;8.312;2023-05-10T03:28:04;4.00;4.00;1.00
27143;PMS1003;14672;50.250;8.312;2023-05-10T03:30:32;5.25;5.25;1.00
27143;PMS1003;14672;50.250;8.312;2023-05-10T03:33:05;5.00;5.00;1.25
27143;PMS1003;14672;50.250;8.312;2023-05-10T03:35:31;4.00;4.00;0.00
27143;PMS1003;14672;50.250;8.312;2023-05-10T03:37:57;4.00;4.00;0.00
27143;PMS1003;14672;50.250;8.312;2023-05-10T03:40:23;6.00;6.00;1.00
27143;PMS1003;14672;50.250;8.312;2023-05-10T03:42:49;5.00;5.00;0.75
27143;PMS1003;14672;50.250;8.312;2023-05-10T03:45:15;4.00;4.00;1.00
27143;PMS1003;14672;50.250;8.312;2023-05-10T03:47:41;8.67;8.67;4.00
27143;PMS1003;14672;50.250;8.312;2023-05-10T03:50:07;4.00;4.00;0.00
27143;PMS1003;14672;50.250;8.312;2023-05-10T03:52:33;4.25;4.25;1.00
27143;PMS1003;14672;50.250;8.312;2023-05-10T03:54:59;4.67;4.67;1.00
27143;PMS1003;14672;50.250;8.312;2023-05-10T03:57:24;4.00;4.00;1.00
27143;PMS1003;14672;50.250;8.312;2023-05-10T03:59:50;5.67;5.67;1.00
27143;PMS1003;14672;50.250;8.312;2023-05-10T04:02:16;5.75;5.75;1.00
27143;PMS1003;14672;50.250;8.312;2023-05-10T04:04:42;6.00;6.00;2.67
27143;PMS1003;14672;50.250;8.312;2023-05-10T04:07:08;4.00;4.00;0.67
27143;PMS1003;14672;50.250;8.312;2023-05-10T04:09:35;5.50;4.00;0.00
27143;PMS1003;14672;50.250;8.312;2023-05-10T04:12:01;4.00;4.00;0.67
27143;PMS1003;14672;50.250;8.312;2023-05-10T04:14:27;5.75;5.75;2.75
27143;PMS1003;14672;50.250;8.312;2023-05-10T04:16:53;4.00;4.00;0.75
27143;PMS1003;14672;50.250;8.312;2023-05-10T04:19:19;4.33;4.33;1.00
27143;PMS1003;14672;50.250;8.312;2023-05-10T04:21:44;4.00;4.00;0.00
27143;PMS1003;14672;50.250;8.312;2023-05-10T04:24:10;5.67;5.67;1.67
27143;PMS1003;14672;50.250;8.312;2023-05-10T04:26:37;4.50;4.50;1.00
27143;PMS1003;14672;50.250;8.312;2023-05-10T04:29:03;7.00;6.00;1.00
27143;PMS1003;14672;50.250;8.312;2023-05-10T04:31:28;7.00;7.00;1.00
27143;PMS1003;14672;50.250;8.312;2023-05-10T04:33:54;6.00;6.00;1.00
27143;PMS1003;14672;50.250;8.312;2023-05-10T04:36:20;6.00;6.00;1.00
27143;PMS1003;14672;50.250;8.312;2023-05-10T04:38:46;9.00;4.00;0.33
27143;PMS1003;14672;50.250;8.312;2023-05-10T04:41:11;4.00;4.00;1.00
27143;PMS1003;14672;50.250;8.312;2023-05-10T04:43:38;4.00;4.00;0.67
27143;PMS1003;14672;50.250;8.312;2023-05-10T04:46:04;6.25;5.75;1.00
27143;PMS1003;14672;50.250;8.312;2023-05-10T04:48:30;6.00;5.75;1.00
27143;PMS1003;14672;50.250;8.312;2023-05-10T04:50:56;7.00;6.00;1.00
27143;PMS1003;14672;50.250;8.312;2023-05-10T04:53:22;4.67;4.67;1.00
27143;PMS1003;14672;50.250;8.312;2023-05-10T04:55:51;5.75;5.75;1.00
27143;PMS1003;14672;50.250;8.312;2023-05-10T04:58:17;6.00;6.00;1.00
27143;PMS1003;14672;50.250;8.312;2023-05-10T05:00:42;6.00;6.00;1.00
27143;PMS1003;14672;50.250;8.312;2023-05-10T05:03:09;7.00;6.25;1.00
27143;PMS1003;14672;50.250;8.312;2023-05-10T05:05:35;6.00;6.00;2.00
27143;PMS1003;14672;50.250;8.312;2023-05-10T05:08:00;7.67;6.33;1.00
27143;PMS1003;14672;50.250;8.312;2023-05-10T05:10:26;7.00;7.00;2.67
27143;PMS1003;14672;50.250;8.312;2023-05-10T05:12:52;7.00;7.00;2.33
27143;PMS1003;14672;50.250;8.312;2023-05-10T05:15:17;7.00;7.00;3.00
27143;PMS1003;14672;50.250;8.312;2023-05-10T05:17:43;6.00;6.00;1.00
27143;PMS1003;14672;50.250;8.312;2023-05-10T05:20:10;6.50;6.25;2.50
27143;PMS1003;14672;50.250;8.312;2023-05-10T05:22:36;5.75;5.75;2.75
27143;PMS1003;14672;50.250;8.312;2023-05-10T05:25:02;5.75;5.75;1.50
27143;PMS1003;14672;50.250;8.312;2023-05-10T05:27:28;5.75;5.75;1.25
27143;PMS1003;14672;50.250;8.312;2023-05-10T05:29:55;7.00;7.00;3.00
27143;PMS1003;14672;50.250;8.312;2023-05-10T05:32:21;8.00;7.00;2.75
27143;PMS1003;14672;50.250;8.312;2023-05-10T05:34:48;6.25;6.25;1.50
27143;PMS1003;14672;50.250;8.312;2023-05-10T05:37:15;8.75;7.00;1.00
27143;PMS1003;14672;50.250;8.312;2023-05-10T05:39:42;6.00;5.75;2.00
27143;PMS1003;14672;50.250;8.312;2023-05-10T05:42:09;6.00;6.00;2.50
27143;PMS1003;14672;50.250;8.312;2023-05-10T05:44:35;5.75;5.75;1.00
27143;PMS1003;14672;50.250;8.312;2023-05-10T05:47:01;7.67;7.67;3.00
27143;PMS1003;14672;50.250;8.312;2023-05-10T05:49:27;6.67;6.67;1.00
27143;PMS1003;14672;50.250;8.312;2023-05-10T05:51:53;5.75;5.75;1.00
27143;PMS1003;14672;50.250;8.312;2023-05-10T05:54:19;8.33;7.00;2.67
27143;PMS1003;14672;50.250;8.312;2023-05-10T05:56:45;6.33;6.33;1.33
27143;PMS1003;14672;50.250;8.312;2023-05-10T05:59:11;7.67;7.00;1.00
27143;PMS1003;14672;50.250;8.312;2023-05-10T06:01:37;6.00;6.00;1.67
27143;PMS1003;14672;50.250;8.312;2023-05-10T06:04:02;6.00;6.00;1.67
27143;PMS1003;14672;50.250;8.312;2023-05-10T06:06:31;5.75;5.75;1.00
27143;PMS1003;14672;50.250;8.312;2023-05-10T06:08:57;7.00;6.67;3.00
27143;PMS1003;14672;50.250;8.312;2023-05-10T06:11:25;5.75;5.75;1.50
27143;PMS1003;14672;50.250;8.312;2023-05-10T06:13:51;6.00;6.00;1.00
27143;PMS1003;14672;50.250;8.312;2023-05-10T06:16:17;6.00;6.00;1.67
27143;PMS1003;14672;50.250;8.312;2023-05-10T06:18:43;5.00;4.33;1.00
27143;PMS1003;14672;50.250;8.312;2023-05-10T06:21:08;7.00;7.00;3.00
27143;PMS1003;14672;50.250;8.312;2023-05-10T06:23:34;6.00;6.00;1.00
27143;PMS1003;14672;50.250;8.312;2023-05-10T06:26:00;5.75;5.75;2.00
27143;PMS1003;14672;50.250;8.312;2023-05-10T06:28:26;7.00;7.00;3.00
27143;PMS1003;14672;50.250;8.312;2023-05-10T06:30:52;5.75;5.75;1.00
27143;PMS1003;14672;50.250;8.312;2023-05-10T06:33:18;7.00;7.00;3.00
27143;PMS1003;14672;50.250;8.312;2023-05-10T06:35:44;6.67;6.67;2.00
27143;PMS1003;14672;50.250;8.312;2023-05-10T06:38:09;6.00;6.00;1.00
27143;PMS1003;14672;50.250;8.312;2023-05-10T06:40:35;7.00;6.25;1.00
27143;PMS1003;14672;50.250;8.312;2023-05-10T06:43:01;4.00;4.00;0.33
27143;PMS1003;14672;50.250;8.312;2023-05-10T06:45:27;5.00;5.00;1.00
27143;PMS1003;14672;50.250;8.312;2023-05-10T06:47:53;7.00;5.67;1.00
27143;PMS1003;14672;50.250;8.312;2023-05-10T06:50:18;6.33;6.33;1.00
27143;PMS1003;14672;50.250;8.312;2023-05-10T06:52:44;5.00;5.00;1.00
27143;PMS1003;14672;50.250;8.312;2023-05-10T06:55:10;7.00;7.00;2.00
27143;PMS1003;14672;50.250;8.312;2023-05-10T06:57:36;4.50;4.50;1.00
27143;PMS1003;14672;50.250;8.312;2023-05-10T07:00:02;5.00;5.00;1.67
27143;PMS1003;14672;50.250;8.312;2023-05-10T07:02:31;5.00;5.00;1.75
27143;PMS1003;14672;50.250;8.312;2023-05-10T07:04:57;5.25;5.00;0.00
27143;PMS1003;14672;50.250;8.312;2023-05-10T07:07:23;5.00;5.00;1.00
27143;PMS1003;14672;50.250;8.312;2023-05-10T07:09:49;5.00;5.00;1.00
27143;PMS1003;14672;50.250;8.312;2023-05-10T07:12:16;7.00;6.75;2.00
27143;PMS1003;14672;50.250;8.312;2023-05-10T07:14:42;7.50;7.50;1.25
27143;PMS1003;14672;50.250;8.312;2023-05-10T07:17:08;8.00;8.00;2.00
27143;PMS1003;14672;50.250;8.312;2023-05-10T07:19:34;7.75;7.75;3.25
27143;PMS1003;14672;50.250;8.312;2023-05-10T07:22:01;4.75;4.75;1.00
27143;PMS1003;14672;50.250;8.312;2023-05-10T07:24:26;6.33;6.33;2.00
27143;PMS1003;14672;50.250;8.312;2023-05-10T07:26:52;8.00;7.00;2.00
27143;PMS1003;14672;50.250;8.312;2023-05-10T07:29:18;5.00;5.00;1.00
27143;PMS1003;14672;50.250;8.312;2023-05-10T07:31:43;10.00;8.33;2.00
27143;PMS1003;14672;50.250;8.312;2023-05-10T07:34:09;7.67;7.33;2.00
27143;PMS1003;14672;50.250;8.312;2023-05-10T07:36:35;8.00;7.00;1.00
27143;PMS1003;14672;50.250;8.312;2023-05-10T07:39:04;8.00;8.00;2.00
27143;PMS1003;14672;50.250;8.312;2023-05-10T07:41:30;5.00;5.00;1.00
27143;PMS1003;14672;50.250;8.312;2023-05-10T07:43:56;7.00;7.00;2.00
27143;PMS1003;14672;50.250;8.312;2023-05-10T07:46:21;8.00;7.00;2.00
27143;PMS1003;14672;50.250;8.312;2023-05-10T07:48:47;8.00;7.00;1.67
27143;PMS1003;14672;50.250;8.312;2023-05-10T07:51:13;7.00;7.00;2.00
27143;PMS1003;14672;50.250;8.312;2023-05-10T07:53:39;8.00;8.00;2.00
27143;PMS1003;14672;50.250;8.312;2023-05-10T07:56:23;4.00;4.00;1.00
27143;PMS1003;14672;50.250;8.312;2023-05-10T07:58:52;10.00;10.00;4.00
27143;PMS1003;14672;50.250;8.312;2023-05-10T08:01:22;10.50;10.00;2.50
27143;PMS1003;14672;50.250;8.312;2023-05-10T08:03:49;7.00;7.00;1.25
27143;PMS1003;14672;50.250;8.312;2023-05-10T08:06:16;7.25;7.25;2.00
27143;PMS1003;14672;50.250;8.312;2023-05-10T08:08:43;7.00;7.00;2.00
27143;PMS1003;14672;50.250;8.312;2023-05-10T08:11:15;7.75;7.75;3.25
27143;PMS1003;14672;50.250;8.312;2023-05-10T08:13:42;7.00;7.00;2.00
27143;PMS1003;14672;50.250;8.312;2023-05-10T08:16:12;8.00;7.50;2.00
27143;PMS1003;14672;50.250;8.312;2023-05-10T08:18:38;7.00;7.00;2.00
27143;PMS1003;14672;50.250;8.312;2023-05-10T08:21:07;8.00;7.00;1.50
27143;PMS1003;14672;50.250;8.312;2023-05-10T08:23:34;10.00;10.00;4.75
27143;PMS1003;14672;50.250;8.312;2023-05-10T08:26:02;7.25;7.25;3.25
27143;PMS1003;14672;50.250;8.312;2023-05-10T08:28:28;7.50;7.50;2.25
27143;PMS1003;14672;50.250;8.312;2023-05-10T08:30:55;9.00;7.33;2.33
27143;PMS1003;14672;50.250;8.312;2023-05-10T08:33:24;10.00;10.00;5.00
27143;PMS1003;14672;50.250;8.312;2023-05-10T08:35:50;7.00;7.00;2.00
27143;PMS1003;14672;50.250;8.312;2023-05-10T08:38:16;8.00;7.00;2.00
27143;PMS1003;14672;50.250;8.312;2023-05-10T08:40:43;6.00;6.00;1.50
27143;PMS1003;14672;50.250;8.312;2023-05-10T08:43:11;9.25;9.25;4.00
27143;PMS1003;14672;50.250;8.312;2023-05-10T08:45:40;7.25;7.25;3.00
27143;PMS1003;14672;50.250;8.312;2023-05-10T08:48:08;7.00;7.00;2.00
27143;PMS1003;14672;50.250;8.312;2023-05-10T08:50:36;8.00;7.75;2.00
27143;PMS1003;14672;50.250;8.312;2023-05-10T08:53:06;6.25;6.25;1.50
27143;PMS1003;14672;50.250;8.312;2023-05-10T08:55:36;7.00;7.00;1.75
27143;PMS1003;14672;50.250;8.312;2023-05-10T08:58:06;8.00;7.25;2.00
27143;PMS1003;14672;50.250;8.312;2023-05-10T09:00:39;7.00;7.00;2.00
27143;PMS1003;14672;50.250;8.312;2023-05-10T09:03:05;7.75;7.50;1.75
27143;PMS1003;14672;50.250;8.312;2023-05-10T09:05:32;7.00;7.00;2.00
27143;PMS1003;14672;50.250;8.312;2023-05-10T09:07:58;9.00;8.00;2.50
27143;PMS1003;14672;50.250;8.312;2023-05-10T09:10:25;7.25;7.25;2.00
27143;PMS1003;14672;50.250;8.312;2023-05-10T09:12:53;8.00;8.00;3.75
27143;PMS1003;14672;50.250;8.312;2023-05-10T09:15:21;7.00;7.00;2.00
27143;PMS1003;14672;50.250;8.312;2023-05-10T09:17:47;8.33;7.67;2.33
27143;PMS1003;14672;50.250;8.312;2023-05-10T09:20:15;11.00;8.25;2.00
27143;PMS1003;14672;50.250;8.312;2023-05-10T09:22:42;7.00;7.00;2.00
27143;PMS1003;14672;50.250;8.312;2023-05-10T09:27:37;6.00;6.00;1.00
27143;PMS1003;14672;50.250;8.312;2023-05-10T09:30:05;5.00;5.00;1.00
27143;PMS1003;14672;50.250;8.312;2023-05-10T09:32:39;7.25;7.25;1.00
27143;PMS1003;14672;50.250;8.312;2023-05-10T09:35:13;10.33;8.33;4.00
27143;PMS1003;14672;50.250;8.312;2023-05-10T09:37:42;7.00;7.00;1.75
27143;PMS1003;14672;50.250;8.312;2023-05-10T09:40:13;7.50;7.00;1.50
27143;PMS1003;14672;50.250;8.312;2023-05-10T09:42:42;7.00;7.00;1.00
27143;PMS1003;14672;50.250;8.312;2023-05-10T09:45:15;7.25;7.25;1.75
27143;PMS1003;14672;50.250;8.312;2023-05-10T09:50:13;7.00;5.00;1.00
27143;PMS1003;14672;50.250;8.312;2023-05-10T09:55:23;5.00;5.00;1.25
27143;PMS1003;14672;50.250;8.312;2023-05-10T09:58:11;7.00;7.00;1.00
27143;PMS1003;14672;50.250;8.312;2023-05-10T10:00:40;7.25;6.00;1.00
27143;PMS1003;14672;50.250;8.312;2023-05-10T10:03:15;5.00;5.00;1.00
27143;PMS1003;14672;50.250;8.312;2023-05-10T10:05:46;7.50;7.25;2.00
27143;PMS1003;14672;50.250;8.312;2023-05-10T10:08:13;7.00;7.00;1.00
27143;PMS1003;14672;50.250;8.312;2023-05-10T10:10:40;6.50;6.50;1.25
27143;PMS1003;14672;50.250;8.312;2023-05-10T10:13:09;6.50;5.00;1.00
27143;PMS1003;14672;50.250;8.312;2023-05-10T10:15:38;5.00;5.00;1.00
27143;PMS1003;14672;50.250;8.312;2023-05-10T10:18:15;2.00;2.00;0.00
27143;PMS1003;14672;50.250;8.312;2023-05-10T10:20:42;4.00;4.00;0.00
27143;PMS1003;14672;50.250;8.312;2023-05-10T10:23:08;6.50;5.25;0.00
27143;PMS1003;14672;50.250;8.312;2023-05-10T10:25:34;4.00;4.00;0.75
27143;PMS1003;14672;50.250;8.312;2023-05-10T10:28:07;4.00;4.00;1.00
27143;PMS1003;14672;50.250;8.312;2023-05-10T10:31:44;5.50;4.25;0.00
27143;PMS1003;14672;50.250;8.312;2023-05-10T10:34:06;4.00;4.00;0.00
27143;PMS1003;14672;50.250;8.312;2023-05-10T10:36:43;4.00;4.00;0.00
27143;PMS1003;14672;50.250;8.312;2023-05-10T10:39:12;3.00;3.00;0.00
27143;PMS1003;14672;50.250;8.312;2023-05-10T10:41:39;4.00;4.00;0.00
27143;PMS1003;14672;50.250;8.312;2023-05-10T10:49:28;4.00;4.00;1.00
27143;PMS1003;14672;50.250;8.312;2023-05-10T10:54:57;7.00;6.00;1.00
27143;PMS1003;14672;50.250;8.312;2023-05-10T11:02:50;3.50;3.50;0.00
27143;PMS1003;14672;50.250;8.312;2023-05-10T11:08:01;3.50;3.50;0.00
27143;PMS1003;14672;50.250;8.312;2023-05-10T11:16:14;3.00;3.00;0.00
27143;PMS1003;14672;50.250;8.312;2023-05-10T11:21:45;6.00;5.00;1.00
27143;PMS1003;14672;50.250;8.312;2023-05-10T11:24:30;5.00;5.00;0.50
27143;PMS1003;14672;50.250;8.312;2023-05-10T11:26:56;4.00;4.00;0.75
27143;PMS1003;14672;50.250;8.312;2023-05-10T11:29:22;4.00;4.00;0.00
27143;PMS1003;14672;50.250;8.312;2023-05-10T11:31:48;2.00;2.00;0.00
27143;PMS1003;14672;50.250;8.312;2023-05-10T11:34:25;4.25;4.25;0.75
27143;PMS1003;14672;50.250;8.312;2023-05-10T11:36:56;4.00;4.00;0.25
27143;PMS1003;14672;50.250;8.312;2023-05-10T11:39:29;4.00;4.00;0.00
27143;PMS1003;14672;50.250;8.312;2023-05-10T11:41:59;4.00;4.00;0.25
27143;PMS1003;14672;50.250;8.312;2023-05-10T11:44:31;4.00;4.00;0.67
27143;PMS1003;14672;50.250;8.312;2023-05-10T11:46:58;5.25;5.25;0.75
27143;PMS1003;14672;50.250;8.312;2023-05-10T11:49:28;5.00;5.00;1.00
27143;PMS1003;14672;50.250;8.312;2023-05-10T11:52:03;5.00;4.67;1.00
27143;PMS1003;14672;50.250;8.312;2023-05-10T11:54:32;2.50;2.50;0.00
27143;PMS1003;14672;50.250;8.312;2023-05-10T11:56:59;4.00;4.00;1.00
27143;PMS1003;14672;50.250;8.312;2023-05-10T11:59:25;4.00;4.00;0.75
27143;PMS1003;14672;50.250;8.312;2023-05-10T12:01:51;4.00;4.00;0.33
27143;PMS1003;14672;50.250;8.312;2023-05-10T12:04:17;4.00;4.00;0.75
27143;PMS1003;14672;50.250;8.312;2023-05-10T12:06:43;4.75;4.75;0.00
27143;PMS1003;14672;50.250;8.312;2023-05-10T12:09:11;2.00;2.00;0.00
27143;PMS1003;14672;50.250;8.312;2023-05-10T12:11:38;2.67;2.67;0.00
27143;PMS1003;14672;50.250;8.312;2023-05-10T12:14:06;3.00;3.00;0.00
27143;PMS1003;14672;50.250;8.312;2023-05-10T12:16:33;2.00;2.00;0.00
27143;PMS1003;14672;50.250;8.312;2023-05-10T12:18:59;4.00;4.00;0.00
27143;PMS1003;14672;50.250;8.312;2023-05-10T12:21:29;4.25;4.00;0.50
27143;PMS1003;14672;50.250;8.312;2023-05-10T12:23:59;5.00;4.00;0.00
27143;PMS1003;14672;50.250;8.312;2023-05-10T12:26:28;3.50;3.50;0.25
27143;PMS1003;14672;50.250;8.312;2023-05-10T12:28:55;2.00;2.00;0.00
27143;PMS1003;14672;50.250;8.312;2023-05-10T12:31:48;2.00;2.00;0.00
27143;PMS1003;14672;50.250;8.312;2023-05-10T12:34:32;2.50;2.50;0.00
27143;PMS1003;14672;50.250;8.312;2023-05-10T12:37:01;5.00;4.00;0.00
27143;PMS1003;14672;50.250;8.312;2023-05-10T12:39:40;4.00;4.00;0.25
27143;PMS1003;14672;50.250;8.312;2023-05-10T12:42:08;4.00;4.00;0.25
27143;PMS1003;14672;50.250;8.312;2023-05-10T12:44:35;4.00;4.00;0.00
27143;PMS1003;14672;50.250;8.312;2023-05-10T12:47:01;4.00;4.00;0.00
27143;PMS1003;14672;50.250;8.312;2023-05-10T12:49:27;5.00;4.33;1.00
27143;PMS1003;14672;50.250;8.312;2023-05-10T12:51:52;2.00;2.00;0.00
27143;PMS1003;14672;50.250;8.312;2023-05-10T12:54:18;4.00;4.00;0.00
27143;PMS1003;14672;50.250;8.312;2023-05-10T12:56:44;3.67;3.67;0.00
27143;PMS1003;14672;50.250;8.312;2023-05-10T12:59:10;2.00;2.00;0.00
27143;PMS1003;14672;50.250;8.312;2023-05-10T13:01:38;3.50;3.50;0.00
27143;PMS1003;14672;50.250;8.312;2023-05-10T13:04:04;2.00;2.00;0.00
27143;PMS1003;14672;50.250;8.312;2023-05-10T13:06:30;4.00;4.00;0.00
27143;PMS1003;14672;50.250;8.312;2023-05-10T13:08:56;3.75;3.75;0.00
27143;PMS1003;14672;50.250;8.312;2023-05-10T13:11:22;4.00;4.00;0.00
27143;PMS1003;14672;50.250;8.312;2023-05-10T13:13:48;2.00;2.00;0.00
27143;PMS1003;14672;50.250;8.312;2023-05-10T13:16:14;4.00;4.00;1.00
27143;PMS1003;14672;50.250;8.312;2023-05-10T13:18:40;4.00;4.00;0.00
27143;PMS1003;14672;50.250;8.312;2023-05-10T13:21:06;4.00;4.00;0.00
27143;PMS1003;14672;50.250;8.312;2023-05-10T13:23:32;3.75;3.75;1.00
27143;PMS1003;14672;50.250;8.312;2023-05-10T13:25:59;4.00;4.00;0.00
27143;PMS1003;14672;50.250;8.312;2023-05-10T13:28:25;4.00;4.00;0.00
27143;PMS1003;14672;50.250;8.312;2023-05-10T13:30:51;4.00;4.00;0.00
27143;PMS1003;14672;50.250;8.312;2023-05-10T13:33:17;5.00;5.00;1.00
27143;PMS1003;14672;50.250;8.312;2023-05-10T13:35:43;4.00;4.00;0.00
27143;PMS1003;14672;50.250;8.312;2023-05-10T13:38:09;4.00;4.00;0.00
27143;PMS1003;14672;50.250;8.312;2023-05-10T13:40:35;4.00;4.00;0.33
27143;PMS1003;14672;50.250;8.312;2023-05-10T13:43:01;3.50;3.50;0.00
27143;PMS1003;14672;50.250;8.312;2023-05-10T13:45:27;4.00;4.00;0.00
27143;PMS1003;14672;50.250;8.312;2023-05-10T13:47:52;4.00;4.00;0.00
27143;PMS1003;14672;50.250;8.312;2023-05-10T13:50:18;2.67;2.67;0.00
27143;PMS1003;14672;50.250;8.312;2023-05-10T13:52:44;5.00;4.00;1.00
27143;PMS1003;14672;50.250;8.312;2023-05-10T13:55:10;4.33;4.33;0.67
27143;PMS1003;14672;50.250;8.312;2023-05-10T13:57:38;4.00;4.00;0.00
27143;PMS1003;14672;50.250;8.312;2023-05-10T14:00:04;5.00;5.00;1.00
27143;PMS1003;14672;50.250;8.312;2023-05-10T14:02:30;5.00;5.00;0.50
27143;PMS1003;14672;50.250;8.312;2023-05-10T14:04:56;5.00;5.00;1.00
27143;PMS1003;14672;50.250;8.312;2023-05-10T14:07:22;4.00;4.00;0.00
27143;PMS1003;14672;50.250;8.312;2023-05-10T14:09:48;5.00;5.00;1.00
27143;PMS1003;14672;50.250;8.312;2023-05-10T14:12:14;4.00;4.00;0.00
27143;PMS1003;14672;50.250;8.312;2023-05-10T14:14:40;4.25;4.00;1.00
27143;PMS1003;14672;50.250;8.312;2023-05-10T14:17:06;3.50;3.50;0.00
27143;PMS1003;14672;50.250;8.312;2023-05-10T14:19:32;2.67;2.67;0.00
27143;PMS1003;14672;50.250;8.312;2023-05-10T14:21:59;4.25;4.25;1.00
27143;PMS1003;14672;50.250;8.312;2023-05-10T14:24:25;5.75;5.75;0.25
27143;PMS1003;14672;50.250;8.312;2023-05-10T14:26:51;4.50;4.50;0.00
27143;PMS1003;14672;50.250;8.312;2023-05-10T14:29:19;5.00;5.00;1.00
27143;PMS1003;14672;50.250;8.312;2023-05-10T14:31:47;6.75;6.75;1.75
27143;PMS1003;14672;50.250;8.312;2023-05-10T14:34:12;4.00;4.00;0.67
27143;PMS1003;14672;50.250;8.312;2023-05-10T14:36:38;4.00;4.00;0.00
27143;PMS1003;14672;50.250;8.312;2023-05-10T14:39:05;5.00;5.00;0.75
27143;PMS1003;14672;50.250;8.312;2023-05-10T14:41:31;6.00;6.00;2.00
27143;PMS1003;14672;50.250;8.312;2023-05-10T14:43:58;5.00;5.00;1.25
27143;PMS1003;14672;50.250;8.312;2023-05-10T14:46:23;4.67;4.67;1.00
27143;PMS1003;14672;50.250;8.312;2023-05-10T14:48:49;5.00;4.67;1.00
27143;PMS1003;14672;50.250;8.312;2023-05-10T14:51:15;12.00;10.00;4.00
27143;PMS1003;14672;50.250;8.312;2023-05-10T14:53:41;28.00;25.33;10.33
27143;PMS1003;14672;50.250;8.312;2023-05-10T14:56:07;29.00;28.00;15.50
27143;PMS1003;14672;50.250;8.312;2023-05-10T14:58:33;27.75;26.75;14.50
27143;PMS1003;14672;50.250;8.312;2023-05-10T15:00:59;54.33;47.00;27.33
27143;PMS1003;14672;50.250;8.312;2023-05-10T15:03:25;25.25;23.75;13.50
27143;PMS1003;14672;50.250;8.312;2023-05-10T15:05:51;12.00;12.00;5.00
27143;PMS1003;14672;50.250;8.312;2023-05-10T15:08:18;78.00;62.00;37.50
27143;PMS1003;14672;50.250;8.312;2023-05-10T15:10:44;39.00;36.67;19.00
27143;PMS1003;14672;50.250;8.312;2023-05-10T15:13:09;73.25;56.00;30.25
27143;PMS1003;14672;50.250;8.312;2023-05-10T15:15:35;92.25;70.00;37.25
27143;PMS1003;14672;50.250;8.312;2023-05-10T15:18:02;49.00;42.25;21.25
27143;PMS1003;14672;50.250;8.312;2023-05-10T15:20:29;31.25;30.50;15.50
27143;PMS1003;14672;50.250;8.312;2023-05-10T15:22:55;10.00;10.00;5.00
27143;PMS1003;14672;50.250;8.312;2023-05-10T15:25:21;42.50;41.75;23.50